createdAt,value
2019-04-27T00:01:18.332Z,100965.91
2019-04-27T00:03:54.013Z,100964.27
2019-04-27T00:06:25.614Z,100962.25
2019-04-27T00:08:56.716Z,100963.65
2019-04-27T00:11:45.549Z,100968.83
2019-04-27T00:14:15.010Z,100968.62
2019-04-27T00:16:53.593Z,100966.02
2019-04-27T00:19:27.393Z,100960.45
2019-04-27T00:21:57.571Z,100960.13
2019-04-27T00:24:27.024Z,100964.95
2019-04-27T00:26:56.592Z,100957.61
2019-04-27T00:29:26.134Z,100964.62
2019-04-27T00:31:55.886Z,100963.02
2019-04-27T00:34:25.376Z,100954.98
2019-04-27T00:36:59.311Z,100957.21
2019-04-27T00:39:39.396Z,100953.20
2019-04-27T00:42:09.053Z,100947.87
2019-04-27T00:44:38.550Z,100946.22
2019-04-27T00:47:08.140Z,100939.63
2019-04-27T00:49:38.631Z,100941.66
2019-04-27T00:52:08.228Z,100927.67
2019-04-27T00:54:37.785Z,100918.42
2019-04-27T00:57:09.062Z,100924.94
2019-04-27T00:59:56.053Z,100920.05
2019-04-27T01:02:43.656Z,100916.58
2019-04-27T01:05:14.866Z,100912.63
2019-04-27T01:07:44.381Z,100914.44
2019-04-27T01:10:13.956Z,100915.81
2019-04-27T01:12:46.476Z,100904.96
2019-04-27T01:15:15.891Z,100910.34
2019-04-27T01:17:45.329Z,100903.86
2019-04-27T01:20:14.896Z,100907.13
2019-04-27T01:22:44.424Z,100907.28
2019-04-27T01:25:14.011Z,100897.46
2019-04-27T01:27:54.642Z,100903.17
2019-04-27T01:30:25.844Z,100901.55
2019-04-27T01:32:56.278Z,100899.03
2019-04-27T01:35:25.971Z,100906.64
2019-04-27T01:37:58.984Z,100900.59
2019-04-27T01:40:29.524Z,100901.50
2019-04-27T01:42:59.162Z,100890.73
2019-04-27T01:45:29.109Z,100890.33
2019-04-27T01:47:59.588Z,100883.28
2019-04-27T01:50:29.165Z,100887.30
2019-04-27T01:52:59.240Z,100885.11
2019-04-27T01:55:31.418Z,100876.02
2019-04-27T01:58:03.772Z,100883.47
2019-04-27T02:00:39.575Z,100888.37
2019-04-27T02:03:12.438Z,100891.56
2019-04-27T02:05:56.134Z,100885.28
2019-04-27T02:08:25.627Z,100884.84
2019-04-27T02:10:55.072Z,100889.24
2019-04-27T02:13:24.566Z,100890.11
2019-04-27T02:15:54.146Z,100890.06
2019-04-27T02:18:34.624Z,100886.28
2019-04-27T02:20:55.449Z,100892.91
2019-04-27T02:23:24.894Z,100889.14
2019-04-27T02:25:54.498Z,100896.24
2019-04-27T02:28:29.425Z,100896.24
2019-04-27T02:31:09.785Z,100896.63
2019-04-27T02:33:50.000Z,100897.41
2019-04-27T02:36:22.327Z,100905.29
2019-04-27T02:38:51.827Z,100897.78
2019-04-27T02:41:21.367Z,100900.92
2019-04-27T02:44:01.798Z,100907.14
2019-04-27T02:46:31.753Z,100907.19
2019-04-27T02:49:06.427Z,100900.23
2019-04-27T02:51:34.013Z,100900.31
2019-04-27T02:54:03.451Z,100905.58
2019-04-27T02:56:32.894Z,100910.27
2019-04-27T02:59:02.316Z,100908.97
2019-04-27T03:01:33.394Z,100904.42
2019-04-27T03:04:02.827Z,100903.58
2019-04-27T03:06:32.344Z,100899.62
2019-04-27T03:09:01.875Z,100908.80
2019-04-27T03:11:33.078Z,100902.67
2019-04-27T03:14:10.297Z,100902.77
2019-04-27T03:16:52.042Z,100891.94
2019-04-27T03:19:39.810Z,100896.80
2019-04-27T03:22:23.701Z,100882.99
2019-04-27T03:25:01.067Z,100886.08
2019-04-27T03:27:40.507Z,100879.09
2019-04-27T03:30:12.578Z,100881.34
2019-04-27T03:32:43.303Z,100876.52
2019-04-27T03:35:14.130Z,100869.52
2019-04-27T03:37:44.452Z,100865.61
2019-04-27T03:40:14.242Z,100866.09
2019-04-27T03:42:45.486Z,100873.09
2019-04-27T03:45:15.043Z,100874.52
2019-04-27T03:47:45.134Z,100869.53
2019-04-27T03:50:16.538Z,100866.96
2019-04-27T03:52:59.932Z,100871.86
2019-04-27T03:55:43.671Z,100865.40
2019-04-27T03:58:21.410Z,100868.48
2019-04-27T04:00:51.972Z,100860.27
2019-04-27T04:03:20.722Z,100862.88
2019-04-27T04:05:52.324Z,100867.69
2019-04-27T04:08:21.652Z,100863.44
2019-04-27T04:10:52.803Z,100870.43
2019-04-27T04:13:29.909Z,100867.95
2019-04-27T04:16:00.979Z,100872.30
2019-04-27T04:18:32.053Z,100877.50
2019-04-27T04:21:03.157Z,100876.72
2019-04-27T04:23:32.596Z,100876.76
2019-04-27T04:26:02.037Z,100872.45
2019-04-27T04:28:31.457Z,100870.68
2019-04-27T04:31:00.889Z,100867.23
2019-04-27T04:33:30.571Z,100867.72
2019-04-27T04:36:00.053Z,100866.45
2019-04-27T04:38:30.501Z,100862.08
2019-04-27T04:41:10.853Z,100868.08
2019-04-27T04:43:59.849Z,100858.52
2019-04-27T04:46:30.138Z,100861.24
2019-04-27T04:49:00.348Z,100861.55
2019-04-27T04:51:30.496Z,100852.56
2019-04-27T04:54:00.195Z,100854.50
2019-04-27T04:56:29.678Z,100852.91
2019-04-27T04:59:00.047Z,100859.26
2019-04-27T05:01:30.784Z,100857.00
2019-04-27T05:04:02.322Z,100860.74
2019-04-27T05:06:33.465Z,100856.53
2019-04-27T05:09:03.212Z,100856.83
2019-04-27T05:11:34.449Z,100855.05
2019-04-27T05:14:03.944Z,100857.95
2019-04-27T05:16:33.375Z,100854.25
2019-04-27T05:19:02.823Z,100854.49
2019-04-27T05:21:35.734Z,100858.66
2019-04-27T05:24:09.406Z,100860.61
2019-04-27T05:26:39.764Z,100868.50
2019-04-27T05:29:10.373Z,100867.67
2019-04-27T05:31:40.277Z,100867.09
2019-04-27T05:34:09.813Z,100861.00
2019-04-27T05:36:43.533Z,100862.48
2019-04-27T05:39:13.140Z,100862.44
2019-04-27T05:41:41.850Z,100859.39
2019-04-27T05:44:18.299Z,100865.01
2019-04-27T05:46:49.313Z,100858.91
2019-04-27T05:49:41.208Z,100863.27
2019-04-27T05:52:29.753Z,100859.64
2019-04-27T05:54:59.650Z,100860.41
2019-04-27T05:57:31.518Z,100856.30
2019-04-27T06:00:02.178Z,100850.55
2019-04-27T06:02:33.429Z,100859.48
2019-04-27T06:05:02.932Z,100851.64
2019-04-27T06:07:32.382Z,100855.91
2019-04-27T06:10:01.801Z,100847.94
2019-04-27T06:12:31.318Z,100854.20
2019-04-27T06:15:02.272Z,100849.70
2019-04-27T06:17:31.733Z,100850.09
2019-04-27T06:20:01.152Z,100850.08
2019-04-27T06:22:31.685Z,100853.89
2019-04-27T06:25:01.117Z,100846.72
2019-04-27T06:27:31.076Z,100845.69
2019-04-27T06:30:00.565Z,100843.74
2019-04-27T06:32:30.241Z,100846.52
2019-04-27T06:34:59.798Z,100840.70
2019-04-27T06:37:29.637Z,100843.97
2019-04-27T06:40:00.312Z,100839.33
2019-04-27T06:42:29.986Z,100838.73
2019-04-27T06:45:00.090Z,100841.94
2019-04-27T06:47:32.732Z,100843.87
2019-04-27T06:50:02.183Z,100832.64
2019-04-27T06:52:31.614Z,100832.52
2019-04-27T06:55:01.180Z,100838.09
2019-04-27T06:57:31.711Z,100840.78
2019-04-27T07:00:01.161Z,100839.40
2019-04-27T07:02:32.073Z,100839.40
2019-04-27T07:05:01.606Z,100836.80
2019-04-27T07:07:32.571Z,100829.77
2019-04-27T07:10:02.397Z,100828.38
2019-04-27T07:12:31.888Z,100826.03
2019-04-27T07:15:01.410Z,100823.20
2019-04-27T07:17:30.911Z,100825.70
2019-04-27T07:20:00.371Z,100820.06
2019-04-27T07:22:31.656Z,100820.56
2019-04-27T07:25:01.115Z,100814.19
2019-04-27T07:27:30.648Z,100818.92
2019-04-27T07:30:01.729Z,100818.64
2019-04-27T07:32:31.453Z,100818.80
2019-04-27T07:35:00.873Z,100812.63
2019-04-27T07:37:30.622Z,100815.53
2019-04-27T07:40:00.075Z,100814.37
2019-04-27T07:42:32.185Z,100814.72
2019-04-27T07:45:19.409Z,100806.91
2019-04-27T07:47:50.670Z,100809.69
2019-04-27T07:50:20.139Z,100807.80
2019-04-27T07:52:49.587Z,100808.53
2019-04-27T07:55:19.122Z,100806.22
2019-04-27T07:57:49.444Z,100805.70
2019-04-27T08:00:20.598Z,100801.38
2019-04-27T08:02:50.125Z,100797.25
2019-04-27T08:05:19.544Z,100805.00
2019-04-27T08:07:49.260Z,100803.23
2019-04-27T08:10:19.459Z,100796.00
2019-04-27T08:12:49.814Z,100799.32
2019-04-27T08:15:19.484Z,100795.23
2019-04-27T08:17:49.363Z,100792.94
2019-04-27T08:20:21.147Z,100782.41
2019-04-27T08:22:50.111Z,100786.81
2019-04-27T08:25:20.114Z,100788.11
2019-04-27T08:27:53.940Z,100785.87
2019-04-27T08:30:36.856Z,100782.66
2019-04-27T08:33:09.247Z,100775.47
2019-04-27T08:35:38.944Z,100781.81
2019-04-27T08:38:09.797Z,100779.42
2019-04-27T08:40:39.443Z,100776.85
2019-04-27T08:43:09.323Z,100776.07
2019-04-27T08:45:41.965Z,100769.03
2019-04-27T08:48:11.405Z,100768.70
2019-04-27T08:50:42.227Z,100769.12
2019-04-27T08:53:11.800Z,100769.03
2019-04-27T08:55:41.214Z,100758.83
2019-04-27T08:58:10.652Z,100759.64
2019-04-27T09:00:40.140Z,100753.69
2019-04-27T09:03:09.729Z,100747.77
2019-04-27T09:05:39.211Z,100749.94
2019-04-27T09:08:22.405Z,100747.69
2019-04-27T09:10:53.545Z,100745.94
2019-04-27T09:13:33.705Z,100748.17
2019-04-27T09:16:20.948Z,100742.91
2019-04-27T09:18:52.126Z,100742.09
2019-04-27T09:21:21.553Z,100742.70
2019-04-27T09:23:51.077Z,100733.24
2019-04-27T09:26:20.536Z,100736.34
2019-04-27T09:28:49.967Z,100731.66
2019-04-27T09:31:19.678Z,100732.25
2019-04-27T09:33:49.175Z,100732.02
2019-04-27T09:36:18.612Z,100726.44
2019-04-27T09:38:48.102Z,100725.70
2019-04-27T09:41:17.553Z,100722.48
2019-04-27T09:43:46.961Z,100720.46
2019-04-27T09:46:16.482Z,100713.79
2019-04-27T09:48:46.620Z,100719.82
2019-04-27T09:51:16.343Z,100713.97
2019-04-27T09:53:45.958Z,100716.53
2019-04-27T09:56:16.475Z,100709.80
2019-04-27T09:58:47.105Z,100712.97
2019-04-27T10:01:18.163Z,100709.31
2019-04-27T10:03:48.957Z,100701.13
2019-04-27T10:06:18.442Z,100700.11
2019-04-27T10:08:47.958Z,100703.80
2019-04-27T10:11:17.445Z,100688.50
2019-04-27T10:13:46.959Z,100689.30
2019-04-27T10:16:16.545Z,100687.89
2019-04-27T10:18:47.911Z,100687.80
2019-04-27T10:21:17.410Z,100676.40
2019-04-27T10:23:48.361Z,100685.00
2019-04-27T10:26:17.791Z,100680.38
2019-04-27T10:28:48.880Z,100680.84
2019-04-27T10:31:20.108Z,100675.55
2019-04-27T10:33:51.086Z,100678.19
2019-04-27T10:36:23.233Z,100677.44
2019-04-27T10:38:52.658Z,100668.19
2019-04-27T10:41:22.112Z,100670.53
2019-04-27T10:43:51.551Z,100663.00
2019-04-27T10:46:21.015Z,100664.58
2019-04-27T10:48:50.436Z,100661.57
2019-04-27T10:51:19.961Z,100651.38
2019-04-27T10:53:49.379Z,100651.27
2019-04-27T10:56:18.884Z,100660.25
2019-04-27T10:58:49.381Z,100653.24
2019-04-27T11:01:19.206Z,100643.18
2019-04-27T11:03:51.892Z,100644.30
2019-04-27T11:06:38.125Z,100643.84
2019-04-27T11:09:13.361Z,100640.78
2019-04-27T11:11:42.934Z,100632.51
2019-04-27T11:14:12.487Z,100634.00
2019-04-27T11:16:41.996Z,100636.64
2019-04-27T11:19:11.483Z,100635.14
2019-04-27T11:21:40.925Z,100630.83
2019-04-27T11:24:10.923Z,100617.41
2019-04-27T11:26:40.369Z,100625.44
2019-04-27T11:29:09.894Z,100617.77
2019-04-27T11:31:40.481Z,100618.73
2019-04-27T11:34:10.088Z,100604.88
2019-04-27T11:36:41.360Z,100614.52
2019-04-27T11:39:13.861Z,100614.58
2019-04-27T11:41:43.797Z,100607.05
2019-04-27T11:44:13.223Z,100611.67
2019-04-27T11:46:42.779Z,100620.16
2019-04-27T11:49:15.674Z,100620.05
2019-04-27T11:51:46.624Z,100612.59
2019-04-27T11:54:16.287Z,100604.64
2019-04-27T11:56:47.188Z,100601.78
2019-04-27T11:59:16.806Z,100596.69
2019-04-27T12:01:47.981Z,100600.22
2019-04-27T12:04:18.920Z,100603.52
2019-04-27T12:06:48.347Z,100603.23
2019-04-27T12:09:17.862Z,100609.73
2019-04-27T12:11:49.175Z,100609.56
2019-04-27T12:14:20.350Z,100607.82
2019-04-27T12:16:50.931Z,100605.67
2019-04-27T12:19:26.707Z,100598.23
2019-04-27T12:21:56.608Z,100599.61
2019-04-27T12:24:26.736Z,100604.20
2019-04-27T12:26:59.659Z,100613.70
2019-04-27T12:29:47.349Z,100616.35
2019-04-27T12:32:18.845Z,100613.55
2019-04-27T12:34:48.370Z,100617.00
2019-04-27T12:37:19.679Z,100615.11
2019-04-27T12:39:50.810Z,100625.48
2019-04-27T12:42:21.119Z,100627.63
2019-04-27T12:44:51.975Z,100626.11
2019-04-27T12:47:21.732Z,100636.11
2019-04-27T12:49:51.261Z,100632.88
2019-04-27T12:52:22.292Z,100623.91
2019-04-27T12:55:05.993Z,100629.57
2019-04-27T12:57:37.205Z,100631.82
2019-04-27T13:00:09.525Z,100635.91
2019-04-27T13:02:39.542Z,100630.98
2019-04-27T13:05:09.202Z,100637.96
2019-04-27T13:07:38.656Z,100629.05
2019-04-27T13:10:08.336Z,100631.24
2019-04-27T13:12:37.817Z,100630.20
2019-04-27T13:15:11.103Z,100627.65
2019-04-27T13:17:40.649Z,100623.11
2019-04-27T13:20:10.627Z,100619.66
2019-04-27T13:22:40.216Z,100624.25
2019-04-27T13:25:11.794Z,100621.57
2019-04-27T13:27:43.949Z,100626.50
2019-04-27T13:30:13.665Z,100626.55
2019-04-27T13:32:43.500Z,100628.13
2019-04-27T13:35:13.344Z,100628.62
2019-04-27T13:37:43.903Z,100628.19
2019-04-27T13:40:17.036Z,100629.12
2019-04-27T13:42:57.280Z,100625.20
2019-04-27T13:45:40.010Z,100627.23
2019-04-27T13:48:11.140Z,100629.92
2019-04-27T13:50:42.291Z,100624.38
2019-04-27T13:53:11.815Z,100620.02
2019-04-27T13:55:41.312Z,100636.19
2019-04-27T13:58:12.191Z,100660.91
2019-04-27T14:00:41.955Z,100677.06
2019-04-27T14:03:14.656Z,100689.95
2019-04-27T14:05:44.282Z,100698.56
2019-04-27T14:08:13.717Z,100702.44
2019-04-27T14:10:43.278Z,100699.80
2019-04-27T14:13:12.724Z,100695.77
2019-04-27T14:15:42.233Z,100700.34
2019-04-27T14:18:11.677Z,100709.69
2019-04-27T14:20:41.104Z,100706.84
2019-04-27T14:23:12.199Z,100710.77
2019-04-27T14:25:42.113Z,100707.80
2019-04-27T14:28:11.630Z,100709.94
2019-04-27T14:30:41.208Z,100706.23
2019-04-27T14:33:10.884Z,100695.62
2019-04-27T14:35:42.159Z,100687.11
2019-04-27T14:38:11.647Z,100688.97
2019-04-27T14:40:45.495Z,100682.13
2019-04-27T14:43:15.060Z,100676.02
2019-04-27T14:45:44.512Z,100677.09
2019-04-27T14:48:18.418Z,100679.78
2019-04-27T14:50:48.620Z,100680.09
2019-04-27T14:53:18.123Z,100677.61
2019-04-27T14:55:49.021Z,100677.09
2019-04-27T14:58:19.648Z,100687.95
2019-04-27T15:00:49.862Z,100688.50
2019-04-27T15:03:19.623Z,100689.02
2019-04-27T15:05:49.794Z,100685.98
2019-04-27T15:08:20.467Z,100683.27
2019-04-27T15:10:49.998Z,100683.59
2019-04-27T15:13:19.493Z,100683.80
2019-04-27T15:15:48.940Z,100679.66
2019-04-27T15:18:19.749Z,100681.38
2019-04-27T15:20:51.745Z,100679.73
2019-04-27T15:23:21.362Z,100671.80
2019-04-27T15:25:53.303Z,100675.73
2019-04-27T15:28:24.363Z,100678.90
2019-04-27T15:30:59.577Z,100682.34
2019-04-27T15:33:53.270Z,100674.61
2019-04-27T15:36:29.494Z,100673.81
2019-04-27T15:39:07.905Z,100683.06
2019-04-27T15:41:39.263Z,100682.56
2019-04-27T15:44:09.460Z,100680.89
2019-04-27T15:46:39.348Z,100685.55
2019-04-27T15:49:11.514Z,100686.40
2019-04-27T15:51:40.132Z,100687.86
2019-04-27T15:54:10.729Z,100690.06
2019-04-27T15:56:41.288Z,100687.70
2019-04-27T15:59:10.792Z,100694.08
2019-04-27T16:01:40.481Z,100696.74
2019-04-27T16:04:11.458Z,100703.80
2019-04-27T16:06:42.831Z,100699.36
2019-04-27T16:09:24.214Z,100707.34
2019-04-27T16:11:57.783Z,100709.88
2019-04-27T16:14:21.197Z,100721.31
2019-04-27T16:16:52.528Z,100734.51
2019-04-27T16:19:21.967Z,100728.23
2019-04-27T16:21:54.276Z,100738.14
2019-04-27T16:24:22.556Z,100743.06
2019-04-27T16:26:55.882Z,100749.90
2019-04-27T16:29:29.845Z,100749.90
2019-04-27T16:31:54.762Z,100759.95
2019-04-27T16:34:24.235Z,100760.55
2019-04-27T16:36:53.865Z,100760.86
2019-04-27T16:39:23.496Z,100754.77
2019-04-27T16:41:53.013Z,100763.30
2019-04-27T16:44:22.505Z,100764.65
2019-04-27T16:46:52.181Z,100763.02
2019-04-27T16:49:23.552Z,100771.66
2019-04-27T16:51:53.533Z,100772.34
2019-04-27T16:54:23.049Z,100773.20
2019-04-27T16:57:01.995Z,100772.28
2019-04-27T16:59:42.295Z,100774.05
2019-04-27T17:01:55.537Z,100776.37
2019-04-27T17:04:25.100Z,100776.42
2019-04-27T17:06:54.622Z,100774.30
2019-04-27T17:09:24.233Z,100771.11
2019-04-27T17:11:53.673Z,100772.37
2019-04-27T17:14:35.066Z,100766.67
2019-04-27T17:17:15.370Z,100766.91
2019-04-27T17:19:49.109Z,100768.87
2019-04-27T17:22:18.307Z,100771.39
2019-04-27T17:24:49.362Z,100772.93
2019-04-27T17:27:22.818Z,100771.53
2019-04-27T17:29:57.633Z,100772.83
2019-04-27T17:32:25.556Z,100774.47
2019-04-27T17:35:02.229Z,100769.41
2019-04-27T17:37:32.236Z,100776.33
2019-04-27T17:40:00.837Z,100775.55
2019-04-27T17:42:30.777Z,100777.96
2019-04-27T17:45:00.636Z,100773.55
2019-04-27T17:47:31.494Z,100766.21
2019-04-27T17:50:00.924Z,100766.05
2019-04-27T17:52:30.406Z,100785.58
2019-04-27T17:55:00.593Z,100788.73
2019-04-27T17:57:31.283Z,100808.75
2019-04-27T18:00:03.489Z,100817.00
2019-04-27T18:02:38.823Z,100818.66
2019-04-27T18:05:09.592Z,100838.81
2019-04-27T18:07:41.825Z,100836.20
2019-04-27T18:10:13.382Z,100838.81
2019-04-27T18:12:44.531Z,100845.58
2019-04-27T18:15:15.844Z,100840.79
2019-04-27T18:17:51.739Z,100846.98
2019-04-27T18:20:23.633Z,100846.02
2019-04-27T18:23:01.153Z,100848.53
2019-04-27T18:25:35.554Z,100849.25
2019-04-27T18:28:08.090Z,100854.87
2019-04-27T18:30:42.120Z,100855.53
2019-04-27T18:33:11.811Z,100863.37
2019-04-27T18:35:41.252Z,100867.42
2019-04-27T18:38:11.762Z,100863.94
2019-04-27T18:40:41.180Z,100856.59
2019-04-27T18:43:12.407Z,100860.41
2019-04-27T18:45:45.056Z,100864.61
2019-04-27T18:48:14.923Z,100860.16
2019-04-27T18:50:53.311Z,100857.91
2019-04-27T18:53:28.900Z,100864.52
2019-04-27T18:56:04.880Z,100866.39
2019-04-27T18:58:29.825Z,100868.14
2019-04-27T19:00:59.250Z,100869.73
2019-04-27T19:03:31.854Z,100878.48
2019-04-27T19:06:02.924Z,100879.27
2019-04-27T19:08:32.437Z,100885.00
2019-04-27T19:11:04.670Z,100885.30
2019-04-27T19:13:33.136Z,100888.73
2019-04-27T19:16:02.698Z,100894.30
2019-04-27T19:18:32.208Z,100902.91
2019-04-27T19:21:01.736Z,100899.95
2019-04-27T19:23:31.155Z,100896.48
2019-04-27T19:26:11.321Z,100898.69
2019-04-27T19:28:48.478Z,100898.27
2019-04-27T19:31:19.579Z,100903.05
2019-04-27T19:33:50.087Z,100901.99
2019-04-27T19:36:19.602Z,100903.16
2019-04-27T19:38:49.756Z,100901.55
2019-04-27T19:41:19.465Z,100911.66
2019-04-27T19:43:49.021Z,100915.97
2019-04-27T19:46:20.077Z,100912.05
2019-04-27T19:48:50.054Z,100913.36
2019-04-27T19:51:19.615Z,100911.51
2019-04-27T19:53:49.060Z,100912.30
2019-04-27T19:56:20.993Z,100907.66
2019-04-27T19:58:52.404Z,100911.30
2019-04-27T20:01:23.800Z,100917.92
2019-04-27T20:03:54.958Z,100922.70
2019-04-27T20:06:24.415Z,100920.67
2019-04-27T20:08:55.481Z,100928.50
2019-04-27T20:11:25.027Z,100925.32
2019-04-27T20:13:54.481Z,100925.66
2019-04-27T20:16:23.889Z,100925.19
2019-04-27T20:18:53.331Z,100932.63
2019-04-27T20:21:22.771Z,100923.48
2019-04-27T20:23:52.194Z,100929.53
2019-04-27T20:26:21.708Z,100935.00
2019-04-27T20:28:51.411Z,100935.00
2019-04-27T20:31:20.954Z,100930.61
2019-04-27T20:33:50.390Z,100927.61
2019-04-27T20:36:21.372Z,100928.70
2019-04-27T20:38:51.022Z,100927.71
2019-04-27T20:41:21.841Z,100922.92
2019-04-27T20:43:51.560Z,100921.52
2019-04-27T20:46:22.728Z,100923.17
2019-04-27T20:48:53.453Z,100920.22
2019-04-27T20:51:24.499Z,100925.14
2019-04-27T20:53:55.590Z,100924.06
2019-04-27T20:56:25.012Z,100923.63
2019-04-27T20:58:54.455Z,100925.84
2019-04-27T21:01:23.873Z,100934.02
2019-04-27T21:03:54.954Z,100937.19
2019-04-27T21:06:26.141Z,100936.03
2019-04-27T21:08:55.599Z,100931.77
2019-04-27T21:11:26.646Z,100927.02
2019-04-27T21:13:57.027Z,100925.08
2019-04-27T21:16:26.659Z,100922.88
2019-04-27T21:18:56.107Z,100921.16
2019-04-27T21:21:25.541Z,100921.02
2019-04-27T21:23:54.985Z,100924.98
2019-04-27T21:26:24.404Z,100930.63
2019-04-27T21:28:53.860Z,100927.73
2019-04-27T21:31:23.306Z,100926.83
2019-04-27T21:33:52.802Z,100931.98
2019-04-27T21:36:22.237Z,100933.28
2019-04-27T21:38:52.165Z,100935.89
2019-04-27T21:41:22.720Z,100943.73
2019-04-27T21:43:52.304Z,100949.43
2019-04-27T21:46:24.815Z,100950.34
2019-04-27T21:48:54.243Z,100951.16
2019-04-27T21:51:23.679Z,100954.12
2019-04-27T21:54:00.898Z,100954.94
2019-04-27T21:56:31.263Z,100958.86
2019-04-27T21:59:01.101Z,100966.20
2019-04-27T22:01:32.549Z,100967.98
2019-04-27T22:04:05.751Z,100961.60
2019-04-27T22:06:35.510Z,100963.43
2019-04-27T22:09:08.551Z,100968.30
2019-04-27T22:11:40.892Z,100968.34
2019-04-27T22:14:11.676Z,100970.08
2019-04-27T22:16:42.558Z,100975.16
2019-04-27T22:19:12.192Z,100975.61
2019-04-27T22:21:42.063Z,100971.34
2019-04-27T22:24:13.235Z,100980.47
2019-04-27T22:26:42.792Z,100980.59
2019-04-27T22:29:12.238Z,100983.76
2019-04-27T22:31:43.358Z,100982.93
2019-04-27T22:34:13.889Z,100979.57
2019-04-27T22:36:43.365Z,100982.18
2019-04-27T22:39:14.573Z,100983.13
2019-04-27T22:41:45.712Z,100985.77
2019-04-27T22:44:21.499Z,100983.16
2019-04-27T22:46:52.572Z,100989.69
2019-04-27T22:49:22.019Z,100984.79
2019-04-27T22:51:51.501Z,100989.05
2019-04-27T22:54:21.779Z,100995.09
2019-04-27T22:56:55.898Z,100999.41
2019-04-27T22:59:32.944Z,100994.70
2019-04-27T23:02:11.314Z,101002.02
2019-04-27T23:04:45.588Z,100996.76
2019-04-27T23:07:15.173Z,100992.02
2019-04-27T23:09:44.677Z,101002.48
2019-04-27T23:12:14.174Z,101001.19
2019-04-27T23:14:43.745Z,100998.73
2019-04-27T23:17:31.745Z,101003.63
2019-04-27T23:20:01.563Z,101001.89
2019-04-27T23:22:31.706Z,101010.73
2019-04-27T23:25:01.185Z,101007.77
2019-04-27T23:27:31.840Z,101008.79
2019-04-27T23:30:01.646Z,101016.22
2019-04-27T23:32:45.199Z,101020.99
2019-04-27T23:35:14.774Z,101015.27
2019-04-27T23:37:44.278Z,101010.42
2019-04-27T23:40:14.827Z,101014.73
2019-04-27T23:42:44.397Z,101019.42
2019-04-27T23:45:14.451Z,101018.95
2019-04-27T23:47:43.908Z,101019.39
2019-04-27T23:50:15.170Z,101019.39
2019-04-27T23:52:52.604Z,101024.68
2019-04-27T23:55:23.810Z,101025.91
2019-04-27T23:57:54.110Z,101022.40
